Time;durP1;ratioP1;P1;durP2;ratioP2;P2;SDS_P1;SDS_P2;PMS_P1;PMS_P2;Temp;Humidity;BMP_temperature;BMP_pressure;BME280_temperature;BME280_humidity;BME280_pressure;Samples;Min_cycle;Max_cycle;Signal;HPM_P1;HPM_P2
2023/08/02 00:00:56;;;;;;;;;0.67;0.67;;;;;16.13;100.00;97249.47;4995518;28;102918;-74
2023/08/02 00:03:24;;;;;;;;;0.00;0.00;;;;;16.23;100.00;97260.41;4998445;28;102099;-75
2023/08/02 00:06:08;;;;;;;;;0.33;0.33;;;;;16.25;100.00;97265.59;4984238;28;102624;-74
2023/08/02 00:09:02;;;;;;;;;1.00;1.00;;;;;16.22;100.00;97271.56;4981915;28;102988;-74
2023/08/02 00:11:51;;;;;;;;;1.00;1.00;;;;;16.14;100.00;97253.00;4986816;28;104242;-74
2023/08/02 00:14:34;;;;;;;;;0.00;0.00;;;;;16.19;100.00;97277.56;4989693;28;102305;-74
2023/08/02 00:17:31;;;;;;;;;1.00;1.00;;;;;16.25;100.00;97287.41;4994226;28;102026;-74
2023/08/02 00:20:16;;;;;;;;;1.00;1.00;;;;;15.98;100.00;97247.53;4979985;28;102350;-73
2023/08/02 00:22:53;;;;;;;;;1.00;1.00;;;;;16.15;100.00;97276.47;4994284;28;103018;-74
2023/08/02 00:25:21;;;;;;;;;1.33;1.00;;;;;16.02;100.00;97262.25;4989321;28;102230;-74
2023/08/02 00:27:48;;;;;;;;;1.00;1.00;;;;;16.22;100.00;97282.47;4997987;28;102271;-74
2023/08/02 00:30:15;;;;;;;;;2.33;1.00;;;;;16.21;100.00;97291.78;4992061;28;102111;-74
2023/08/02 00:32:44;;;;;;;;;2.33;2.33;;;;;16.14;100.00;97280.28;4993773;28;104134;-74
2023/08/02 00:35:17;;;;;;;;;1.00;1.00;;;;;16.16;100.00;97283.56;5002746;28;102187;-73
2023/08/02 00:37:44;;;;;;;;;2.00;1.00;;;;;16.21;100.00;97287.09;4972258;28;102196;-74
2023/08/02 00:40:12;;;;;;;;;2.00;2.00;;;;;16.28;100.00;97289.59;4974897;28;101984;-74
2023/08/02 00:42:39;;;;;;;;;1.33;1.00;;;;;16.25;100.00;97287.41;4993544;28;104127;-74
2023/08/02 00:45:07;;;;;;;;;2.00;2.00;;;;;16.17;100.00;97268.81;4993197;28;102149;-74
2023/08/02 00:47:35;;;;;;;;;1.00;1.00;;;;;16.14;100.00;97269.38;4989923;28;102500;-74
2023/08/02 00:50:04;;;;;;;;;2.00;2.00;;;;;16.25;100.00;97288.22;4993019;28;102257;-74
2023/08/02 00:52:31;;;;;;;;;1.67;1.67;;;;;16.24;100.00;97291.22;4992650;28;103902;-74
2023/08/02 00:54:58;;;;;;;;;3.67;3.00;;;;;16.10;100.00;97265.53;4996801;28;102287;-74
2023/08/02 00:57:25;;;;;;;;;2.67;2.00;;;;;16.19;100.00;97283.84;4970407;28;102385;-73
2023/08/02 00:59:53;;;;;;;;;4.00;2.00;;;;;16.07;100.00;97275.88;4981398;28;102561;-74
2023/08/02 01:02:20;;;;;;;;;3.00;3.00;;;;;16.20;100.00;97293.66;4989999;28;103996;-73
2023/08/02 01:05:03;;;;;;;;;2.00;2.00;;;;;16.10;100.00;97271.00;4993105;28;102287;-74
2023/08/02 01:08:01;;;;;;;;;2.00;1.00;;;;;16.17;100.00;97282.47;4989099;28;102001;-74
2023/08/02 01:11:06;;;;;;;;;1.00;1.00;;;;;16.14;100.00;97291.19;4991140;28;102050;-74
2023/08/02 01:13:58;;;;;;;;;4.67;2.00;;;;;16.13;100.00;97284.91;4988701;28;103391;-73
2023/08/02 01:16:43;;;;;;;;;1.00;1.00;;;;;16.17;100.00;97293.38;4992708;28;102604;-74
2023/08/02 01:19:28;;;;;;;;;2.67;1.67;;;;;16.17;100.00;97301.53;4971198;28;102161;-74
2023/08/02 01:22:14;;;;;;;;;1.33;1.00;;;;;16.05;100.00;97293.63;4994663;28;102141;-74
2023/08/02 01:24:41;;;;;;;;;1.00;1.00;;;;;16.12;100.00;97312.47;4990574;28;104402;-75
2023/08/02 01:27:16;;;;;;;;;1.00;1.00;;;;;16.13;100.00;97306.72;4975592;28;102064;-74
2023/08/02 01:29:47;;;;;;;;;1.00;1.00;;;;;16.12;100.00;97315.19;4994492;28;102272;-73
2023/08/02 01:32:16;;;;;;;;;1.00;1.00;;;;;16.08;100.00;97310.25;4974756;28;102251;-74
2023/08/02 01:34:43;;;;;;;;;1.00;1.00;;;;;16.15;100.00;97314.66;4986143;28;104024;-73
2023/08/02 01:37:11;;;;;;;;;2.33;1.67;;;;;16.13;100.00;97322.25;4993724;28;103492;-73
2023/08/02 01:39:38;;;;;;;;;1.00;1.00;;;;;16.02;100.00;97310.53;4987466;28;102844;-73
2023/08/02 01:42:05;;;;;;;;;0.00;0.00;;;;;16.08;100.00;97320.34;4982276;28;102622;-74
2023/08/02 01:44:32;;;;;;;;;1.67;1.00;;;;;15.95;100.00;97310.75;4990782;28;103257;-73
2023/08/02 01:46:59;;;;;;;;;0.00;0.00;;;;;16.04;100.00;97330.97;4992666;28;101970;-74
2023/08/02 01:49:30;;;;;;;;;1.33;1.00;;;;;16.05;100.00;97326.34;4990493;28;102250;-73
2023/08/02 01:51:58;;;;;;;;;3.00;2.67;;;;;16.02;100.00;97322.25;4992919;28;102215;-74
2023/08/02 01:54:25;;;;;;;;;2.00;2.00;;;;;15.99;100.00;97322.75;4996837;28;104273;-74
2023/08/02 01:56:52;;;;;;;;;0.00;0.00;;;;;16.01;100.00;97326.06;4995140;28;102267;-74
2023/08/02 01:59:19;;;;;;;;;2.00;2.00;;;;;15.96;100.00;97320.59;5005978;28;102306;-74
2023/08/02 02:01:46;;;;;;;;;1.67;1.00;;;;;16.00;100.00;97329.03;4995887;28;101921;-74
2023/08/02 02:04:13;;;;;;;;;2.00;1.00;;;;;15.93;100.00;97328.47;4981205;28;103905;-74
2023/08/02 02:06:40;;;;;;;;;1.00;1.00;;;;;16.00;100.00;97340.78;4975078;28;103069;-73
2023/08/02 02:09:08;;;;;;;;;1.00;1.00;;;;;15.95;100.00;97338.03;4994259;28;102498;-73
2023/08/02 02:11:35;;;;;;;;;1.00;1.00;;;;;15.80;100.00;97307.16;4997258;28;102234;-73
2023/08/02 02:14:02;;;;;;;;;1.00;1.00;;;;;15.90;100.00;97323.53;4991146;28;104547;-73
2023/08/02 02:16:29;;;;;;;;;1.00;1.00;;;;;15.91;100.00;97334.19;4976977;28;102450;-73
2023/08/02 02:18:56;;;;;;;;;1.00;1.00;;;;;15.82;100.00;97319.44;4992286;28;103045;-74
2023/08/02 02:21:23;;;;;;;;;2.00;1.67;;;;;15.84;100.00;97330.91;4980732;28;102271;-73
2023/08/02 02:23:50;;;;;;;;;2.00;2.00;;;;;15.91;100.00;97357.91;4979424;28;105754;-73
2023/08/02 02:26:18;;;;;;;;;2.00;1.33;;;;;15.82;100.00;97343.13;4996521;28;102057;-73
2023/08/02 02:29:01;;;;;;;;;1.00;1.00;;;;;15.85;100.00;97354.31;4993728;28;101935;-73
2023/08/02 02:31:44;;;;;;;;;3.67;2.00;;;;;15.83;100.00;97355.69;4992366;28;102272;-73
2023/08/02 02:34:12;;;;;;;;;4.00;3.00;;;;;15.68;100.00;97342.78;4992915;28;104088;-73
2023/08/02 02:36:39;;;;;;;;;3.67;3.67;;;;;15.78;100.00;97358.38;4995084;28;101785;-73
2023/08/02 02:39:26;;;;;;;;;3.00;3.00;;;;;15.72;100.00;97353.97;4978158;28;102216;-73
2023/08/02 02:41:53;;;;;;;;;3.00;2.00;;;;;15.76;100.00;97360.56;4995349;28;102308;-73
2023/08/02 02:44:21;;;;;;;;;3.00;3.00;;;;;15.72;100.00;97354.78;4988631;28;103966;-74
2023/08/02 02:46:48;;;;;;;;;3.00;3.00;;;;;15.69;100.00;97358.06;4996569;28;102197;-74
2023/08/02 02:49:15;;;;;;;;;2.00;2.00;;;;;15.60;100.00;97346.03;4972999;28;102093;-74
2023/08/02 02:51:42;;;;;;;;;3.00;1.00;;;;;15.68;100.00;97361.03;4998401;28;102228;-73
2023/08/02 02:54:09;;;;;;;;;1.00;0.00;;;;;15.57;100.00;97346.56;4978956;28;104309;-73
2023/08/02 02:56:36;;;;;;;;;2.00;2.00;;;;;15.61;100.00;97362.13;4993166;28;102220;-74
2023/08/02 02:59:03;;;;;;;;;1.00;1.00;;;;;15.59;100.00;97368.88;4973909;28;102088;-74
2023/08/02 03:01:30;;;;;;;;;0.00;0.00;;;;;15.57;100.00;97362.91;4995423;28;101916;-75
2023/08/02 03:03:58;;;;;;;;;1.00;1.00;;;;;15.62;100.00;97385.53;4988869;28;104055;-73
2023/08/02 03:06:25;;;;;;;;;3.00;1.00;;;;;15.58;100.00;97378.16;4991473;28;102459;-73
2023/08/02 03:08:52;;;;;;;;;1.33;1.33;;;;;15.56;100.00;97381.16;4991358;28;102156;-73
2023/08/02 03:11:40;;;;;;;;;2.00;2.00;;;;;15.55;100.00;97381.41;4997935;28;102202;-73
2023/08/02 03:14:24;;;;;;;;;1.00;1.00;;;;;15.54;100.00;97379.75;4994063;28;103394;-73
2023/08/02 03:16:54;;;;;;;;;2.00;1.67;;;;;15.02;100.00;97328.72;4991356;28;102151;-73
2023/08/02 03:19:21;;;;;;;;;2.00;2.00;;;;;15.42;100.00;97371.75;4992547;28;102413;-73
2023/08/02 03:21:48;;;;;;;;;1.00;1.00;;;;;15.43;100.00;97378.03;4995247;28;102503;-73
2023/08/02 03:24:15;;;;;;;;;4.33;2.00;;;;;15.36;100.00;97380.97;4991914;28;103981;-73
2023/08/02 03:26:42;;;;;;;;;3.67;1.67;;;;;15.36;100.00;97374.69;4994533;28;102218;-73
2023/08/02 03:29:10;;;;;;;;;1.00;1.00;;;;;15.38;100.00;97378.00;4986324;28;102575;-73
2023/08/02 03:31:37;;;;;;;;;2.33;2.00;;;;;15.36;100.00;97380.13;4996754;28;102429;-73
2023/08/02 03:34:04;;;;;;;;;2.00;2.00;;;;;15.40;100.00;97392.97;4991088;28;104576;-72
2023/08/02 03:36:31;;;;;;;;;3.00;2.00;;;;;15.39;100.00;97385.09;4998639;28;102260;-73
2023/08/02 03:38:59;;;;;;;;;4.67;3.33;;;;;15.18;100.00;97373.19;4993884;28;102080;-74
2023/08/02 03:41:26;;;;;;;;;4.33;4.00;;;;;15.32;100.00;97384.47;4992970;28;102023;-74
2023/08/02 03:43:53;;;;;;;;;3.00;3.00;;;;;15.24;100.00;97371.34;4983590;28;104143;-73
2023/08/02 03:46:20;;;;;;;;;4.00;3.00;;;;;15.12;100.00;97350.56;4989337;28;101955;-73
2023/08/02 03:48:47;;;;;;;;;4.00;4.00;;;;;15.29;100.00;97379.56;4994858;28;102967;-74
2023/08/02 03:51:16;;;;;;;;;3.33;3.33;;;;;15.30;100.00;97389.38;4992159;28;102509;-74
2023/08/02 03:53:43;;;;;;;;;1.33;1.33;;;;;15.24;100.00;97395.84;4995517;28;104033;-74
2023/08/02 03:56:22;;;;;;;;;2.67;2.00;;;;;15.28;100.00;97392.34;4991610;28;102476;-74
2023/08/02 03:59:06;;;;;;;;;2.33;2.00;;;;;-143.90;86.72;73905.09;4989857;28;102537;-74
2023/08/02 04:01:33;;;;;;;;;1.33;1.33;;;;;14.55;100.00;97268.72;4998957;28;102262;-74
2023/08/02 04:04:01;;;;;;;;;1.00;1.00;;;;;14.91;100.00;97326.16;4991273;28;103657;-73
2023/08/02 04:06:28;;;;;;;;;1.67;1.00;;;;;14.90;100.00;97325.34;4970315;28;103028;-71
2023/08/02 04:08:55;;;;;;;;;2.00;2.00;;;;;14.97;100.00;97336.84;4991331;28;102120;-72
2023/08/02 04:11:22;;;;;;;;;1.00;0.33;;;;;14.83;100.00;97313.84;4967851;28;102244;-72
2023/08/02 04:13:50;;;;;;;;;3.00;3.00;;;;;14.78;100.00;97313.81;4990123;28;104127;-72
2023/08/02 04:16:17;;;;;;;;;1.00;1.00;;;;;14.97;100.00;97347.72;4985377;28;102268;-72
2023/08/02 04:18:44;;;;;;;;;1.00;1.00;;;;;15.05;100.00;97351.84;4996075;28;102392;-73
2023/08/02 04:21:19;;;;;;;;;2.33;2.00;;;;;14.94;100.00;97337.34;4990755;28;102093;-72
2023/08/02 04:23:48;;;;;;;;;2.00;2.00;;;;;15.06;100.00;97345.34;4986105;28;104311;-72
2023/08/02 04:26:16;;;;;;;;;2.00;2.00;;;;;14.86;100.00;97321.47;4975309;28;102241;-73
2023/08/02 04:28:45;;;;;;;;;4.00;3.00;;;;;15.04;100.00;97345.59;4990437;28;102602;-72
2023/08/02 04:31:13;;;;;;;;;2.33;2.33;;;;;15.08;100.00;97354.88;4968517;28;104161;-73
2023/08/02 04:33:41;;;;;;;;;2.67;2.33;;;;;15.10;100.00;97352.72;4988798;28;104017;-74
2023/08/02 04:36:08;;;;;;;;;3.75;3.75;;;;;15.13;100.00;97351.38;4986043;28;102440;-74
2023/08/02 04:38:35;;;;;;;;;5.00;4.00;;;;;14.84;100.00;97307.34;4972896;28;102298;-74
2023/08/02 04:41:02;;;;;;;;;3.00;2.00;;;;;15.06;100.00;97335.28;4969382;28;102140;-74
2023/08/02 04:43:29;;;;;;;;;3.33;2.00;;;;;15.18;100.00;97349.50;4970371;28;105496;-74
2023/08/02 04:45:56;;;;;;;;;3.67;3.67;;;;;15.20;100.00;97352.00;4966472;28;102148;-72
2023/08/02 04:48:23;;;;;;;;;5.00;5.00;;;;;15.23;100.00;97354.19;4971243;28;102327;-74
2023/08/02 04:50:51;;;;;;;;;5.00;4.75;;;;;15.30;100.00;97345.78;4968073;28;102224;-74
2023/08/02 04:53:18;;;;;;;;;5.33;3.67;;;;;15.34;100.00;97336.03;4965910;28;104212;-74
2023/08/02 04:55:45;;;;;;;;;4.67;4.67;;;;;15.51;100.00;97347.59;4974358;28;101882;-74
2023/08/02 04:58:12;;;;;;;;;3.00;3.00;;;;;15.64;100.00;97341.69;4963756;28;102302;-74
2023/08/02 05:00:39;;;;;;;;;4.00;3.00;;;;;15.89;100.00;97343.72;4968358;28;102133;-74
2023/08/02 05:03:07;;;;;;;;;4.00;3.00;;;;;16.15;100.00;97336.47;4966546;28;104025;-74
2023/08/02 05:05:34;;;;;;;;;4.00;4.00;;;;;16.29;100.00;97316.59;4951365;28;103267;-74
2023/08/02 05:08:01;;;;;;;;;4.00;3.00;;;;;16.66;100.00;97324.59;4967961;28;102280;-75
2023/08/02 05:10:28;;;;;;;;;6.00;4.33;;;;;16.89;100.00;97335.00;4973576;28;102808;-72
2023/08/02 05:12:55;;;;;;;;;2.00;2.00;;;;;17.10;100.00;97332.28;4958421;28;104924;-73
2023/08/02 05:15:22;;;;;;;;;3.00;3.00;;;;;17.21;100.00;97333.91;4971603;28;103140;-73
2023/08/02 05:17:49;;;;;;;;;4.00;4.00;;;;;17.39;100.00;97323.25;4976213;28;102089;-73
2023/08/02 05:20:17;;;;;;;;;4.67;4.00;;;;;17.59;100.00;97338.81;4974549;28;102379;-73
2023/08/02 05:22:44;;;;;;;;;3.00;3.00;;;;;17.76;100.00;97325.66;4972417;28;103016;-73
2023/08/02 05:25:11;;;;;;;;;3.67;3.33;;;;;17.97;100.00;97344.72;4971079;28;102192;-73
2023/08/02 05:27:38;;;;;;;;;3.00;3.00;;;;;18.17;100.00;97333.72;4973448;28;101972;-73
2023/08/02 05:30:06;;;;;;;;;4.00;2.00;;;;;18.21;100.00;97329.31;4961227;28;103058;-72
2023/08/02 05:32:33;;;;;;;;;3.00;2.00;;;;;18.34;98.24;97331.44;4977475;28;104349;-73
2023/08/02 05:35:00;;;;;;;;;3.33;3.00;;;;;18.50;98.71;97335.75;4975746;28;102036;-73
2023/08/02 05:37:29;;;;;;;;;3.67;3.00;;;;;18.62;96.86;97338.16;4959956;28;102122;-73
2023/08/02 05:39:56;;;;;;;;;7.00;6.00;;;;;18.87;98.65;97346.19;4957555;28;102276;-79
2023/08/02 05:42:23;;;;;;;;;4.00;4.00;;;;;18.81;97.36;97346.53;4971731;28;105658;-79
2023/08/02 05:44:50;;;;;;;;;6.33;6.33;;;;;18.98;98.21;97330.50;4977352;28;101981;-79
2023/08/02 05:47:17;;;;;;;;;3.00;3.00;;;;;18.94;94.90;97324.78;4970898;28;103030;-78
2023/08/02 05:49:44;;;;;;;;;3.33;3.00;;;;;19.16;93.86;97351.72;4974785;28;102187;-78
2023/08/02 05:52:11;;;;;;;;;3.67;3.00;;;;;19.30;93.24;97349.16;4973397;28;104251;-78
2023/08/02 05:54:38;;;;;;;;;3.67;2.67;;;;;19.41;94.53;97342.47;4969389;28;101885;-79
2023/08/02 05:57:07;;;;;;;;;5.33;5.33;;;;;19.48;93.57;97337.50;4971156;28;102302;-78
2023/08/02 05:59:37;;;;;;;;;4.67;4.67;;;;;19.44;92.72;97342.75;4974986;28;102478;-78
2023/08/02 06:02:05;;;;;;;;;4.33;4.33;;;;;19.55;95.16;97349.75;4967584;28;104056;-79
2023/08/02 06:04:42;;;;;;;;;4.67;4.00;;;;;19.75;91.52;97356.16;4976516;28;102129;-78
2023/08/02 06:07:09;;;;;;;;;3.33;3.33;;;;;19.92;90.45;97364.75;4972371;28;102001;-79
2023/08/02 06:09:37;;;;;;;;;2.67;2.67;;;;;19.94;88.85;97348.81;4977429;28;102022;-79
2023/08/02 06:12:04;;;;;;;;;4.33;3.67;;;;;20.07;90.93;97348.13;4974343;28;104062;-79
2023/08/02 06:14:31;;;;;;;;;5.67;4.33;;;;;20.24;90.45;97367.66;4973924;28;102157;-79
2023/08/02 06:16:58;;;;;;;;;2.67;2.67;;;;;20.36;88.06;97367.25;4972244;28;102194;-78
2023/08/02 06:19:25;;;;;;;;;2.67;2.67;;;;;20.44;88.11;97355.66;4971664;28;102913;-79
2023/08/02 06:21:52;;;;;;;;;3.67;2.67;;;;;20.56;89.87;97363.44;4971233;28;104171;-79
2023/08/02 06:24:21;;;;;;;;;3.00;3.00;;;;;20.51;87.74;97363.50;4980066;28;102310;-79
2023/08/02 06:26:48;;;;;;;;;4.33;4.33;;;;;20.60;85.25;97369.97;4972349;28;102031;-78
2023/08/02 06:29:15;;;;;;;;;3.00;3.00;;;;;20.55;85.43;97370.88;4953822;28;102629;-77
2023/08/02 06:31:42;;;;;;;;;2.00;1.00;;;;;20.49;85.02;97361.06;4966981;28;104304;-77
2023/08/02 06:34:10;;;;;;;;;3.00;3.00;;;;;20.56;85.90;97366.19;4973422;28;102071;-77
2023/08/02 06:36:38;;;;;;;;;3.00;3.00;;;;;20.47;87.56;97339.41;4968666;28;102193;-78
2023/08/02 06:39:05;;;;;;;;;5.67;5.00;;;;;20.90;86.75;97381.34;4979821;28;102086;-79
2023/08/02 06:41:32;;;;;;;;;4.33;4.33;;;;;20.93;83.97;97378.03;4979561;28;104021;-78
2023/08/02 06:43:59;;;;;;;;;5.00;4.00;;;;;20.93;82.80;97375.28;4981374;28;102164;-79
2023/08/02 06:46:26;;;;;;;;;3.00;3.00;;;;;21.09;84.63;97375.03;4976805;28;102282;-79
2023/08/02 06:48:53;;;;;;;;;2.00;2.00;;;;;21.09;81.09;97384.09;4976697;28;102939;-79
2023/08/02 06:51:20;;;;;;;;;2.33;2.33;;;;;21.10;80.70;97394.00;4971817;28;104032;-79
2023/08/02 06:53:48;;;;;;;;;2.00;2.00;;;;;21.14;82.48;97388.75;4973225;28;101907;-78
2023/08/02 06:56:18;;;;;;;;;3.00;3.00;;;;;21.15;83.48;97366.47;4973044;28;102028;-79
2023/08/02 06:58:45;;;;;;;;;3.00;2.00;;;;;21.19;81.90;97359.25;4979854;28;102106;-78
2023/08/02 07:01:18;;;;;;;;;1.33;1.33;;;;;21.38;79.68;97383.97;4977160;28;104213;-78
2023/08/02 07:03:46;;;;;;;;;0.67;0.67;;;;;21.43;78.46;97391.31;4976853;28;102397;-79
2023/08/02 07:06:15;;;;;;;;;4.00;2.00;;;;;21.37;75.18;97398.81;4958786;28;102172;-78
2023/08/02 07:08:43;;;;;;;;;3.00;3.00;;;;;21.22;77.38;97377.88;4957933;28;102699;-78
2023/08/02 07:11:11;;;;;;;;;1.67;1.67;;;;;21.24;76.46;97392.16;4971973;28;104167;-77
2023/08/02 07:13:58;;;;;;;;;1.00;1.00;;;;;21.27;77.36;97410.78;4975303;28;102314;-77
2023/08/02 07:16:25;;;;;;;;;3.00;3.00;;;;;20.78;75.94;97380.16;4962958;28;102263;-77
2023/08/02 07:18:52;;;;;;;;;2.00;2.00;;;;;20.87;78.97;97412.19;4977320;28;102528;-79
2023/08/02 07:21:19;;;;;;;;;2.67;2.00;;;;;20.85;81.87;97369.63;4962379;28;103304;-78
2023/08/02 07:23:46;;;;;;;;;2.00;2.00;;;;;20.98;81.66;97404.63;4976341;28;102377;-78
2023/08/02 07:26:13;;;;;;;;;4.00;3.00;;;;;20.94;77.91;97407.13;4970568;28;102305;-77
2023/08/02 07:28:40;;;;;;;;;4.33;4.00;;;;;20.82;78.67;97389.44;4977442;28;102436;-79
2023/08/02 07:31:12;;;;;;;;;3.00;3.00;;;;;20.82;81.76;97409.50;4977813;28;104175;-79
2023/08/02 07:33:39;;;;;;;;;2.33;2.00;;;;;21.03;81.98;97398.25;4978918;28;102503;-78
2023/08/02 07:36:18;;;;;;;;;1.00;1.00;;;;;21.17;76.53;97394.44;4961777;28;103042;-79
2023/08/02 07:38:46;;;;;;;;;2.67;2.00;;;;;21.02;73.44;97383.69;4990640;28;102251;-77
2023/08/02 07:41:13;;;;;;;;;2.00;1.33;;;;;21.09;73.03;97388.78;4994310;28;104189;-78
2023/08/02 07:43:40;;;;;;;;;1.00;1.00;;;;;20.91;72.43;97379.44;4995495;28;102222;-79
2023/08/02 07:46:18;;;;;;;;;1.67;1.67;;;;;20.85;73.72;97361.38;4991134;28;102361;-77
2023/08/02 07:48:45;;;;;;;;;2.00;1.33;;;;;20.86;74.07;97355.59;4997345;28;103102;-77
2023/08/02 07:51:13;;;;;;;;;3.00;1.00;;;;;20.92;74.69;97353.59;5000380;28;104062;-78
2023/08/02 07:53:40;;;;;;;;;2.00;2.00;;;;;20.69;72.30;97347.06;4994468;28;101997;-77
2023/08/02 07:56:07;;;;;;;;;1.33;0.33;;;;;20.61;73.67;97344.16;4997473;28;101891;-78
2023/08/02 07:58:34;;;;;;;;;2.00;2.00;;;;;20.36;73.92;97282.97;4999079;28;102303;-78
2023/08/02 08:01:06;;;;;;;;;1.33;1.00;;;;;20.47;78.32;97278.16;4989665;28;104121;-78
2023/08/02 08:03:34;;;;;;;;;2.00;1.00;;;;;20.54;76.01;97266.78;4996307;28;101975;-79
2023/08/02 08:06:12;;;;;;;;;1.67;1.67;;;;;20.51;76.14;97250.91;4993803;28;102690;-77
2023/08/02 08:08:40;;;;;;;;;0.00;0.00;;;;;20.71;78.25;97243.19;4996434;28;102268;-78
2023/08/02 08:11:07;;;;;;;;;1.50;1.50;;;;;20.78;70.97;97243.63;4998488;28;105533;-78
2023/08/02 08:13:35;;;;;;;;;2.00;2.00;;;;;20.82;68.54;97239.16;4973053;28;102117;-79
2023/08/02 08:16:02;;;;;;;;;1.33;1.33;;;;;20.44;72.03;97210.91;4990728;28;102158;-79
2023/08/02 08:18:33;;;;;;;;;1.00;1.00;;;;;20.25;70.52;97229.31;4977396;28;102441;-78
2023/08/02 08:21:03;;;;;;;;;1.00;1.00;;;;;20.23;73.22;97216.97;4970348;28;105017;-79
2023/08/02 08:23:31;;;;;;;;;2.00;1.33;;;;;20.23;70.21;97223.28;4996284;28;102215;-78
2023/08/02 08:25:58;;;;;;;;;2.00;2.00;;;;;20.12;66.75;97218.25;4996189;28;102388;-77
2023/08/02 08:28:25;;;;;;;;;1.00;1.00;;;;;20.02;66.80;97219.22;4998615;28;102227;-78
2023/08/02 08:30:59;;;;;;;;;1.00;1.00;;;;;19.74;72.74;97184.47;4992813;28;104080;-78
2023/08/02 08:33:27;;;;;;;;;2.00;2.00;;;;;19.66;72.23;97179.63;4989120;28;102665;-79
2023/08/02 08:35:54;;;;;;;;;1.00;1.00;;;;;19.73;74.79;97193.78;4989143;28;102233;-78
2023/08/02 08:38:21;;;;;;;;;1.00;1.00;;;;;19.65;72.46;97184.31;4928052;28;1438041;-78
2023/08/02 08:40:53;;;;;;;;;1.67;1.67;;;;;19.60;71.49;97196.16;4991911;28;103993;-76
2023/08/02 08:43:25;;;;;;;;;2.00;2.00;;;;;19.47;73.97;97158.47;4998644;28;101916;-79
2023/08/02 08:45:53;;;;;;;;;2.00;2.00;;;;;19.53;74.93;97182.00;4998260;28;102351;-76
2023/08/02 08:48:22;;;;;;;;;3.00;2.00;;;;;19.37;71.22;97171.44;4998943;28;102264;-77
2023/08/02 08:50:50;;;;;;;;;1.33;1.33;;;;;19.55;74.41;97178.94;4992300;28;104056;-77
2023/08/02 08:53:29;;;;;;;;;3.00;3.00;;;;;19.60;73.43;97165.16;4992681;28;102176;-78
2023/08/02 08:55:57;;;;;;;;;2.00;2.00;;;;;19.71;78.12;97124.72;4994221;28;102256;-78
2023/08/02 08:58:25;;;;;;;;;5.00;3.00;;;;;19.93;74.73;97142.22;4991210;28;102070;-77
2023/08/02 09:00:54;;;;;;;;;2.33;2.33;;;;;20.12;74.48;97134.00;4998241;28;103687;-79
2023/08/02 09:03:23;;;;;;;;;4.00;4.00;;;;;19.94;67.11;97101.91;4986443;28;101968;-78
2023/08/02 09:05:51;;;;;;;;;4.00;4.00;;;;;20.04;69.88;97088.00;4985436;28;102261;-78
2023/08/02 09:08:18;;;;;;;;;4.00;3.67;;;;;20.18;70.25;97123.72;4978579;28;102441;-80
2023/08/02 09:10:45;;;;;;;;;4.00;3.00;;;;;20.05;69.64;97106.91;4987870;28;104615;-77
2023/08/02 09:13:23;;;;;;;;;2.00;2.00;;;;;19.83;69.39;97101.22;4991565;28;102083;-79
2023/08/02 09:16:11;;;;;;;;;2.00;2.00;;;;;19.52;70.61;97087.13;4990314;28;102290;-77
2023/08/02 09:18:44;;;;;;;;;1.00;1.00;;;;;19.09;70.30;97055.34;4994298;28;102358;-79
2023/08/02 09:21:14;;;;;;;;;1.33;0.67;;;;;19.32;72.77;97092.84;4996387;28;103597;-76
2023/08/02 09:23:47;;;;;;;;;2.00;1.00;;;;;19.11;72.73;97066.81;4978256;28;102352;-78
2023/08/02 09:26:19;;;;;;;;;1.00;1.00;;;;;19.25;73.43;97086.91;4976803;28;102258;-78
2023/08/02 09:29:03;;;;;;;;;2.33;1.67;;;;;19.18;73.51;97064.53;4990275;28;102261;-79
2023/08/02 09:31:35;;;;;;;;;3.00;2.00;;;;;19.29;71.20;97081.66;4991417;28;103620;-79
2023/08/02 09:34:03;;;;;;;;;0.00;0.00;;;;;19.36;71.19;97069.22;4995573;28;102418;-79
2023/08/02 09:36:35;;;;;;;;;2.33;2.00;;;;;19.26;70.06;97074.84;4979280;28;102213;-78
2023/08/02 09:39:10;;;;;;;;;2.33;1.00;;;;;18.96;70.74;97073.28;4978867;28;102001;-78
2023/08/02 09:41:37;;;;;;;;;3.00;2.00;;;;;19.00;70.39;97066.09;4995323;28;105042;-78
2023/08/02 09:44:24;;;;;;;;;1.00;1.00;;;;;19.15;71.05;97074.16;4991607;28;102248;-81
2023/08/02 09:46:52;;;;;;;;;2.00;2.00;;;;;19.43;71.01;97069.72;4970076;28;102127;-78
2023/08/02 09:49:21;;;;;;;;;2.33;2.00;;;;;19.54;66.81;97060.22;4991219;28;102058;-79
2023/08/02 09:51:48;;;;;;;;;1.33;1.33;;;;;19.56;65.25;97058.00;4994306;28;104069;-79
2023/08/02 09:54:16;;;;;;;;;2.00;2.00;;;;;19.50;65.65;97067.41;4998323;28;102121;-78
2023/08/02 09:56:43;;;;;;;;;1.67;1.00;;;;;19.52;67.69;97037.78;4999885;28;101887;-79
2023/08/02 09:59:11;;;;;;;;;1.33;1.33;;;;;19.56;63.57;97038.00;4997547;28;101938;-77
2023/08/02 10:01:39;;;;;;;;;1.67;1.67;;;;;19.61;64.55;97021.47;4992004;28;103486;-77
2023/08/02 10:04:10;;;;;;;;;3.00;2.00;;;;;19.63;63.68;97034.91;4994458;28;102572;-77
2023/08/02 10:06:47;;;;;;;;;1.67;1.67;;;;;19.48;64.72;97019.47;4988609;28;102471;-78
2023/08/02 10:09:19;;;;;;;;;2.00;2.00;;;;;19.47;63.13;97004.94;4992834;28;102758;-77
2023/08/02 10:12:08;;;;;;;;;3.00;2.00;;;;;19.56;61.33;96988.66;4998070;28;104181;-77
2023/08/02 10:14:36;;;;;;;;;3.33;3.00;;;;;19.38;62.61;96979.28;4998073;28;102779;-77
2023/08/02 10:17:04;;;;;;;;;2.33;2.00;;;;;19.29;63.42;96970.09;4998157;28;102177;-77
2023/08/02 10:19:34;;;;;;;;;2.00;2.00;;;;;19.34;63.29;96969.22;4996760;28;103108;-79
2023/08/02 10:22:04;;;;;;;;;1.00;1.00;;;;;19.30;65.08;96927.06;4996243;28;104015;-78
2023/08/02 10:24:31;;;;;;;;;1.00;1.00;;;;;19.55;64.55;96930.25;4980767;28;101877;-78
2023/08/02 10:27:02;;;;;;;;;2.00;2.00;;;;;19.38;65.13;96874.31;4999885;28;102499;-78
2023/08/02 10:29:33;;;;;;;;;2.00;2.00;;;;;19.50;67.12;96872.75;4997893;28;102231;-77
2023/08/02 10:32:18;;;;;;;;;2.00;2.00;;;;;19.47;61.33;96875.28;4997328;28;104200;-77
2023/08/02 10:34:51;;;;;;;;;2.00;2.00;;;;;19.54;61.56;96871.03;4978571;28;102981;-79
2023/08/02 10:37:20;;;;;;;;;2.00;2.00;;;;;19.60;63.12;96850.66;4980387;28;102277;-77
2023/08/02 10:39:47;;;;;;;;;3.00;3.00;;;;;19.78;60.49;96859.94;4993536;28;102054;-77
2023/08/02 10:42:19;;;;;;;;;1.00;1.00;;;;;19.97;57.02;96865.34;4973728;28;103395;-78
2023/08/02 10:44:55;;;;;;;;;3.00;2.33;;;;;19.98;57.02;96862.31;4977260;28;101997;-77
2023/08/02 10:47:31;;;;;;;;;1.33;1.00;;;;;19.81;61.51;96807.19;4979639;28;102177;-77
2023/08/02 10:49:59;;;;;;;;;1.00;1.00;;;;;19.87;57.46;96827.13;5003312;28;102104;-78
2023/08/02 10:52:30;;;;;;;;;0.33;0.33;;;;;19.90;55.38;96827.31;4998780;28;104295;-77
2023/08/02 10:55:05;;;;;;;;;0.33;0.33;;;;;19.82;60.28;96781.41;4997997;28;102291;-78
2023/08/02 10:57:32;;;;;;;;;1.00;0.00;;;;;19.81;56.73;96801.72;4993900;28;102213;-78
2023/08/02 10:59:59;;;;;;;;;0.00;0.00;;;;;19.69;59.89;96760.28;4997770;28;102301;-78
2023/08/02 11:02:44;;;;;;;;;0.67;0.67;;;;;19.78;57.55;96785.88;4992285;28;104024;-78
2023/08/02 11:05:13;;;;;;;;;0.00;0.00;;;;;19.85;57.47;96774.50;4995371;28;102259;-79
2023/08/02 11:07:41;;;;;;;;;1.00;1.00;;;;;19.72;55.33;96767.09;4996903;28;102466;-77
2023/08/02 11:10:08;;;;;;;;;1.00;1.00;;;;;19.58;57.50;96743.22;4989938;28;103066;-79
2023/08/02 11:12:35;;;;;;;;;2.00;1.00;;;;;19.55;54.85;96743.81;4977503;28;104057;-78
2023/08/02 11:15:15;;;;;;;;;1.00;1.00;;;;;19.44;53.13;96720.47;4985910;28;102845;-78
2023/08/02 11:17:42;;;;;;;;;0.67;0.67;;;;;19.62;52.26;96737.94;4987113;28;101972;-79
2023/08/02 11:20:25;;;;;;;;;1.00;1.00;;;;;19.68;49.80;96736.69;4973591;28;102240;-78
2023/08/02 11:22:53;;;;;;;;;0.33;0.33;;;;;19.62;52.17;96710.53;4980061;28;104280;-78
2023/08/02 11:25:21;;;;;;;;;1.00;0.33;;;;;19.35;55.73;96645.50;4978523;28;102161;-78
2023/08/02 11:28:04;;;;;;;;;1.00;1.00;;;;;19.53;51.84;96652.84;4979156;28;102395;-78
2023/08/02 11:30:31;;;;;;;;;0.33;0.00;;;;;19.49;53.10;96648.28;4990591;28;102253;-77
2023/08/02 11:32:58;;;;;;;;;1.00;1.00;;;;;19.54;52.11;96653.66;4974011;28;104244;-77
2023/08/02 11:35:25;;;;;;;;;1.00;1.00;;;;;19.50;52.57;96639.72;4990958;28;101945;-78